createdAt,value
2023-01-17T00:00:17.338Z,3.40
2023-01-17T00:01:17.261Z,3.40
2023-01-17T00:02:17.335Z,3.41
2023-01-17T00:03:17.259Z,3.41
2023-01-17T00:04:17.289Z,3.40
2023-01-17T00:05:17.251Z,3.41
2023-01-17T00:06:17.228Z,3.42
2023-01-17T00:07:17.197Z,3.42
2023-01-17T00:08:17.207Z,3.44
2023-01-17T00:09:17.161Z,3.42
2023-01-17T00:10:17.237Z,3.42
2023-01-17T00:11:17.147Z,3.47
2023-01-17T00:12:17.166Z,3.44
2023-01-17T00:13:17.123Z,3.45
2023-01-17T00:14:17.151Z,3.48
2023-01-17T00:15:17.105Z,3.47
2023-01-17T00:16:17.143Z,3.48
2023-01-17T00:17:17.095Z,3.50
2023-01-17T00:18:17.082Z,3.50
2023-01-17T00:19:17.038Z,3.50
2023-01-17T00:20:19.322Z,3.50
2023-01-17T00:21:17.011Z,3.53
2023-01-17T00:22:17.058Z,3.51
2023-01-17T00:23:17.013Z,3.55
2023-01-17T00:24:17.019Z,3.50
2023-01-17T00:25:16.960Z,3.53
2023-01-17T00:26:16.997Z,3.50
2023-01-17T00:27:16.949Z,3.50
2023-01-17T00:28:16.967Z,3.50
2023-01-17T00:29:16.909Z,3.48
2023-01-17T00:30:16.917Z,3.48
2023-01-17T00:31:16.991Z,3.47
2023-01-17T00:32:16.905Z,3.44
2023-01-17T00:33:16.878Z,3.41
2023-01-17T00:34:16.873Z,3.37
2023-01-17T00:35:16.833Z,3.36
2023-01-17T00:36:16.854Z,3.37
2023-01-17T00:37:16.813Z,3.37
2023-01-17T00:38:16.881Z,3.37
2023-01-17T00:39:16.783Z,3.36
2023-01-17T00:40:16.812Z,3.37
2023-01-17T00:41:16.765Z,3.31
2023-01-17T00:42:16.761Z,3.29
2023-01-17T00:43:16.747Z,3.29
2023-01-17T00:44:16.767Z,3.28
2023-01-17T00:45:16.719Z,3.31
2023-01-17T00:46:16.750Z,3.29
2023-01-17T00:47:16.683Z,3.29
2023-01-17T00:48:16.696Z,3.29
2023-01-17T00:49:16.695Z,3.29
2023-01-17T00:50:16.664Z,3.31
2023-01-17T00:51:16.646Z,3.31
2023-01-17T00:52:16.662Z,3.32
2023-01-17T00:53:16.625Z,3.32
2023-01-17T00:54:18.930Z,3.34
2023-01-17T00:55:16.621Z,3.36
2023-01-17T00:56:16.624Z,3.32
2023-01-17T00:57:16.562Z,3.32
2023-01-17T00:58:16.561Z,3.32
2023-01-17T00:59:16.576Z,3.36
2023-01-17T01:00:16.590Z,3.40
2023-01-17T01:01:16.585Z,3.40
2023-01-17T01:02:16.659Z,3.40
2023-01-17T01:03:16.522Z,3.40
2023-01-17T01:04:16.508Z,3.40
2023-01-17T01:05:16.467Z,3.36
2023-01-17T01:06:16.521Z,3.37
2023-01-17T01:07:16.435Z,3.37
2023-01-17T01:08:16.444Z,3.37
2023-01-17T01:09:16.413Z,3.36
2023-01-17T01:10:16.413Z,3.32
2023-01-17T01:11:16.445Z,3.34
2023-01-17T01:12:16.424Z,3.34
2023-01-17T01:13:16.362Z,3.34
2023-01-17T01:14:16.381Z,3.34
2023-01-17T01:15:16.332Z,3.31
2023-01-17T01:16:16.376Z,3.32
2023-01-17T01:17:16.357Z,3.32
2023-01-17T01:18:16.309Z,3.36
2023-01-17T01:19:16.287Z,3.34
2023-01-17T01:20:16.289Z,3.36
2023-01-17T01:21:16.247Z,3.36
2023-01-17T01:22:16.268Z,3.34
2023-01-17T01:23:16.256Z,3.29
2023-01-17T01:24:16.239Z,3.23
2023-01-17T01:25:16.221Z,3.21
2023-01-17T01:26:16.205Z,3.23
2023-01-17T01:27:16.184Z,3.25
2023-01-17T01:28:16.215Z,3.26
2023-01-17T01:29:16.163Z,3.29
2023-01-17T01:30:16.162Z,3.31
2023-01-17T01:31:16.144Z,3.28
2023-01-17T01:32:16.164Z,3.29
2023-01-17T01:33:16.121Z,3.26
2023-01-17T01:34:16.138Z,3.25
2023-01-17T01:35:16.085Z,3.22
2023-01-17T01:36:16.085Z,3.22
2023-01-17T01:37:16.054Z,3.25
2023-01-17T01:38:16.076Z,3.25
2023-01-17T01:39:16.058Z,3.26
2023-01-17T01:40:16.052Z,3.31
2023-01-17T01:41:16.026Z,3.31
2023-01-17T01:42:16.024Z,3.29
2023-01-17T01:43:15.981Z,3.28
2023-01-17T01:44:16.025Z,3.28
2023-01-17T01:45:15.943Z,3.26
2023-01-17T01:46:15.968Z,3.26
2023-01-17T01:47:23.010Z,3.25
2023-01-17T01:48:15.946Z,3.26
2023-01-17T01:49:15.889Z,3.31
2023-01-17T01:50:15.919Z,3.34
2023-01-17T01:51:15.860Z,3.36
2023-01-17T01:52:15.899Z,3.40
2023-01-17T01:53:15.856Z,3.40
2023-01-17T01:54:15.896Z,3.34
2023-01-17T01:55:15.818Z,3.36
2023-01-17T01:56:15.842Z,3.36
2023-01-17T01:57:15.788Z,3.29
2023-01-17T01:58:51.514Z,3.28
2023-01-17T01:59:15.801Z,3.26
2023-01-17T02:00:15.782Z,3.28
2023-01-17T02:01:15.825Z,3.22
2023-01-17T02:02:15.732Z,3.23
2023-01-17T02:03:15.740Z,3.26
2023-01-17T02:04:15.700Z,3.25
2023-01-17T02:05:15.701Z,3.25
2023-01-17T02:06:15.690Z,3.26
2023-01-17T02:07:15.716Z,3.25
2023-01-17T02:08:15.650Z,3.25
2023-01-17T02:09:15.661Z,3.22
2023-01-17T02:10:15.626Z,3.18
2023-01-17T02:11:15.657Z,3.14
2023-01-17T02:12:15.594Z,3.10
2023-01-17T02:13:15.608Z,3.08
2023-01-17T02:14:15.576Z,3.05
2023-01-17T02:15:15.625Z,3.03
2023-01-17T02:16:15.584Z,3.04
2023-01-17T02:17:15.559Z,3.05
2023-01-17T02:18:15.514Z,3.04
2023-01-17T02:19:15.522Z,3.03
2023-01-17T02:20:15.500Z,2.98
2023-01-17T02:21:15.545Z,2.98
2023-01-17T02:22:15.490Z,2.97
2023-01-17T02:23:15.484Z,2.95
2023-01-17T02:24:15.440Z,3.00
2023-01-17T02:25:15.457Z,2.98
2023-01-17T02:26:15.416Z,2.95
2023-01-17T02:27:15.456Z,2.97
2023-01-17T02:28:15.409Z,3.00
2023-01-17T02:29:15.397Z,3.01
2023-01-17T02:30:15.366Z,3.03
2023-01-17T02:31:15.413Z,3.03
2023-01-17T02:32:15.361Z,2.98
2023-01-17T02:33:15.391Z,2.98
2023-01-17T02:34:15.332Z,2.97
2023-01-17T02:35:15.330Z,2.98
2023-01-17T02:36:15.304Z,3.00
2023-01-17T02:37:15.389Z,2.98
2023-01-17T02:38:15.262Z,2.98
2023-01-17T02:39:15.300Z,2.98
2023-01-17T02:40:15.233Z,2.97
2023-01-17T02:41:15.971Z,2.95
2023-01-17T02:42:16.149Z,2.95
2023-01-17T02:43:15.239Z,2.89
2023-01-17T02:44:15.211Z,2.90
2023-01-17T02:45:15.649Z,2.92
2023-01-17T02:46:15.203Z,2.92
2023-01-17T02:47:15.175Z,2.93
2023-01-17T02:48:15.127Z,2.89
2023-01-17T02:49:15.165Z,2.85
2023-01-17T02:50:15.110Z,2.87
2023-01-17T02:51:15.134Z,2.86
2023-01-17T02:52:15.114Z,2.85
2023-01-17T02:53:15.083Z,2.83
2023-01-17T02:54:15.082Z,2.83
2023-01-17T02:55:15.102Z,2.83
2023-01-17T02:56:15.088Z,2.79
2023-01-17T02:57:15.048Z,2.77
2023-01-17T02:58:15.030Z,2.74
2023-01-17T02:59:15.010Z,2.74
2023-01-17T03:00:15.002Z,2.75
2023-01-17T03:01:15.116Z,2.74
2023-01-17T03:02:15.083Z,2.72
2023-01-17T03:03:15.102Z,2.71
2023-01-17T03:04:14.930Z,2.68
2023-01-17T03:05:14.927Z,2.65
2023-01-17T03:06:14.925Z,2.65
2023-01-17T03:07:14.953Z,2.64
2023-01-17T03:08:14.874Z,2.64
2023-01-17T03:09:14.885Z,2.61
2023-01-17T03:10:14.848Z,2.62
2023-01-17T03:11:14.859Z,2.61
2023-01-17T03:12:14.823Z,2.61
2023-01-17T03:13:14.867Z,2.62
2023-01-17T03:14:14.833Z,2.62
2023-01-17T03:15:14.802Z,2.65
2023-01-17T03:16:14.791Z,2.64
2023-01-17T03:17:14.994Z,2.62
2023-01-17T03:18:14.753Z,2.57
2023-01-17T03:19:14.780Z,2.61
2023-01-17T03:20:14.779Z,2.62
2023-01-17T03:21:14.728Z,2.60
2023-01-17T03:22:14.734Z,2.57
2023-01-17T03:23:14.733Z,2.57
2023-01-17T03:24:14.665Z,2.56
2023-01-17T03:25:14.689Z,2.53
2023-01-17T03:26:14.674Z,2.53
2023-01-17T03:27:14.699Z,2.51
2023-01-17T03:28:14.614Z,2.54
2023-01-17T03:29:14.640Z,2.54
2023-01-17T03:30:14.661Z,2.56
2023-01-17T03:31:14.621Z,2.56
2023-01-17T03:32:14.619Z,2.53
2023-01-17T03:33:14.576Z,2.54
2023-01-17T03:34:14.544Z,2.57
2023-01-17T03:35:14.599Z,2.57
2023-01-17T03:36:14.539Z,2.60
2023-01-17T03:37:14.529Z,2.64
2023-01-17T03:38:14.488Z,2.64
2023-01-17T03:39:14.488Z,2.64
2023-01-17T03:40:14.468Z,2.67
2023-01-17T03:41:14.465Z,2.68
2023-01-17T03:42:14.469Z,2.71
2023-01-17T03:43:14.451Z,2.72
2023-01-17T03:44:14.404Z,2.72
2023-01-17T03:45:14.413Z,2.68
2023-01-17T03:46:14.395Z,2.69
2023-01-17T03:47:14.402Z,2.71
2023-01-17T03:48:14.387Z,2.68
2023-01-17T03:49:14.375Z,2.68
2023-01-17T03:50:14.337Z,2.68
2023-01-17T03:51:14.350Z,2.68
2023-01-17T03:52:14.319Z,2.67
2023-01-17T03:53:14.326Z,2.62
2023-01-17T03:54:14.311Z,2.62
2023-01-17T03:55:14.298Z,2.62
2023-01-17T03:56:14.406Z,2.61
2023-01-17T03:57:14.248Z,2.62
2023-01-17T03:58:14.248Z,2.62
2023-01-17T03:59:14.245Z,2.62
2023-01-17T04:00:15.210Z,2.62
2023-01-17T04:01:14.299Z,2.64
2023-01-17T04:02:14.415Z,2.64
2023-01-17T04:03:14.168Z,2.65
2023-01-17T04:04:14.186Z,2.67
2023-01-17T04:05:14.201Z,2.68
2023-01-17T04:06:14.150Z,2.68
2023-01-17T04:07:14.120Z,2.68
2023-01-17T04:08:14.111Z,2.68
2023-01-17T04:09:14.081Z,2.69
2023-01-17T04:10:14.176Z,2.68
2023-01-17T04:11:14.103Z,2.69
2023-01-17T04:12:14.089Z,2.69
2023-01-17T04:13:14.036Z,2.68
2023-01-17T04:14:14.054Z,2.64
2023-01-17T04:15:14.008Z,2.62
2023-01-17T04:16:14.087Z,2.60
2023-01-17T04:17:14.046Z,2.60
2023-01-17T04:18:14.001Z,2.60
2023-01-17T04:19:14.026Z,2.61
2023-01-17T04:20:14.029Z,2.62
2023-01-17T04:21:13.940Z,2.60
2023-01-17T04:22:13.944Z,2.60
2023-01-17T04:23:13.911Z,2.60
2023-01-17T04:24:13.965Z,2.56
2023-01-17T04:25:13.883Z,2.54
2023-01-17T04:26:13.913Z,2.53
2023-01-17T04:27:13.919Z,2.54
2023-01-17T04:28:13.858Z,2.53
2023-01-17T04:29:13.841Z,2.51
2023-01-17T04:30:13.854Z,2.51
2023-01-17T04:31:13.928Z,2.53
2023-01-17T04:32:13.840Z,2.50
2023-01-17T04:33:13.783Z,2.50
2023-01-17T04:34:13.838Z,2.49
2023-01-17T04:35:13.754Z,2.49
2023-01-17T04:36:13.772Z,2.47
2023-01-17T04:37:13.727Z,2.46
2023-01-17T04:38:13.764Z,2.47
2023-01-17T04:39:13.703Z,2.46
2023-01-17T04:40:13.792Z,2.43
2023-01-17T04:41:13.670Z,2.43
2023-01-17T04:42:13.680Z,2.46
2023-01-17T04:43:13.671Z,2.42
2023-01-17T04:44:13.679Z,2.43
2023-01-17T04:45:13.622Z,2.38
2023-01-17T04:46:13.700Z,2.39
2023-01-17T04:47:13.599Z,2.39
2023-01-17T04:48:13.624Z,2.39
2023-01-17T04:49:13.576Z,2.38
2023-01-17T04:50:13.624Z,2.35
2023-01-17T04:51:13.550Z,2.36
2023-01-17T04:52:13.571Z,2.36
2023-01-17T04:53:13.522Z,2.36
2023-01-17T04:54:13.599Z,2.35
2023-01-17T04:55:13.500Z,2.36
2023-01-17T04:56:13.561Z,2.36
2023-01-17T04:57:13.604Z,2.35
2023-01-17T04:58:13.515Z,2.33
2023-01-17T04:59:13.473Z,2.32
2023-01-17T05:00:13.476Z,2.29
2023-01-17T05:01:13.490Z,2.25
2023-01-17T05:02:13.464Z,2.24
2023-01-17T05:03:13.394Z,2.22
2023-01-17T05:04:13.397Z,2.20
2023-01-17T05:05:13.380Z,2.22
2023-01-17T05:06:13.418Z,2.20
2023-01-17T05:07:13.352Z,2.17
2023-01-17T05:08:13.355Z,2.17
2023-01-17T05:09:13.325Z,2.15
2023-01-17T05:10:13.334Z,2.15
2023-01-17T05:11:13.296Z,2.14
2023-01-17T05:12:13.324Z,2.13
2023-01-17T05:13:13.262Z,2.10
2023-01-17T05:14:13.292Z,2.10
2023-01-17T05:15:13.253Z,2.08
2023-01-17T05:16:13.271Z,2.08
2023-01-17T05:17:13.211Z,2.07
2023-01-17T05:18:13.251Z,2.08
2023-01-17T05:19:13.219Z,2.06
2023-01-17T05:20:13.195Z,2.04
2023-01-17T05:21:13.162Z,2.04
2023-01-17T05:22:13.177Z,2.00
2023-01-17T05:23:13.140Z,2.02
2023-01-17T05:24:13.147Z,2.02
2023-01-17T05:25:13.133Z,2.02
2023-01-17T05:26:13.140Z,2.00
2023-01-17T05:27:13.127Z,1.97
2023-01-17T05:28:13.123Z,1.95
2023-01-17T05:29:13.059Z,1.89
2023-01-17T05:30:13.076Z,1.85
2023-01-17T05:31:13.127Z,1.84
2023-01-17T05:32:13.083Z,1.84
2023-01-17T05:33:13.028Z,1.80
2023-01-17T05:34:13.021Z,1.76
2023-01-17T05:35:12.980Z,1.78
2023-01-17T05:36:13.154Z,1.81
2023-01-17T05:37:13.005Z,1.84
2023-01-17T05:38:12.988Z,1.78
2023-01-17T05:39:12.928Z,1.77
2023-01-17T05:40:12.937Z,1.74
2023-01-17T05:41:12.907Z,1.77
2023-01-17T05:42:12.939Z,1.76
2023-01-17T05:43:12.878Z,1.73
2023-01-17T05:44:12.874Z,1.73
2023-01-17T05:45:12.865Z,1.76
2023-01-17T05:46:12.938Z,1.74
2023-01-17T05:47:12.832Z,1.74
2023-01-17T05:48:12.883Z,1.73
2023-01-17T05:49:12.806Z,1.73
2023-01-17T05:50:12.808Z,1.73
2023-01-17T05:51:12.792Z,1.73
2023-01-17T05:52:12.795Z,1.71
2023-01-17T05:53:12.767Z,1.76
2023-01-17T05:54:12.761Z,1.77
2023-01-17T05:55:12.727Z,1.77
2023-01-17T05:56:12.826Z,1.78
2023-01-17T05:57:12.732Z,1.80
2023-01-17T05:58:12.717Z,1.80
2023-01-17T05:59:14.345Z,1.78
2023-01-17T06:00:12.685Z,1.77
2023-01-17T06:01:12.691Z,1.77
2023-01-17T06:02:12.731Z,1.77
2023-01-17T06:03:12.642Z,1.76
2023-01-17T06:04:12.677Z,1.77
2023-01-17T06:05:12.612Z,1.80
2023-01-17T06:06:12.606Z,1.78
2023-01-17T06:07:12.578Z,1.78
2023-01-17T06:08:12.602Z,1.80
2023-01-17T06:09:12.549Z,1.81
2023-01-17T06:10:12.586Z,1.81
2023-01-17T06:11:12.532Z,1.80
2023-01-17T06:12:12.527Z,1.81
2023-01-17T06:13:12.501Z,1.78
2023-01-17T06:14:12.498Z,1.78
2023-01-17T06:15:12.475Z,1.77
2023-01-17T06:16:12.623Z,1.73
2023-01-17T06:17:12.444Z,1.68
2023-01-17T06:18:12.468Z,1.68
2023-01-17T06:19:12.414Z,1.66
2023-01-17T06:20:12.465Z,1.63
2023-01-17T06:21:12.420Z,1.59
2023-01-17T06:22:12.417Z,1.56
2023-01-17T06:23:12.386Z,1.55
2023-01-17T06:24:12.388Z,1.53
2023-01-17T06:25:12.361Z,1.50
2023-01-17T06:26:12.382Z,1.48
2023-01-17T06:27:12.312Z,1.44
2023-01-17T06:28:12.366Z,1.42
2023-01-17T06:29:12.288Z,1.38
2023-01-17T06:30:12.323Z,1.37
2023-01-17T06:31:12.333Z,1.38
2023-01-17T06:32:12.262Z,1.37
2023-01-17T06:33:12.234Z,1.38
2023-01-17T06:34:12.197Z,1.40
2023-01-17T06:35:12.225Z,1.37
2023-01-17T06:36:12.227Z,1.32
2023-01-17T06:37:12.167Z,1.34
2023-01-17T06:38:12.138Z,1.34
2023-01-17T06:39:14.863Z,1.34
2023-01-17T06:40:12.176Z,1.38
2023-01-17T06:41:12.110Z,1.40
2023-01-17T06:42:12.148Z,1.37
2023-01-17T06:43:12.061Z,1.40
2023-01-17T06:44:12.133Z,1.38
2023-01-17T06:45:12.064Z,1.35
2023-01-17T06:46:12.075Z,1.38
2023-01-17T06:47:11.999Z,1.41
2023-01-17T06:48:12.047Z,1.44
2023-01-17T06:49:11.987Z,1.44
2023-01-17T06:50:11.994Z,1.48
2023-01-17T06:51:12.006Z,1.49
2023-01-17T06:52:11.977Z,1.50
2023-01-17T06:53:11.976Z,1.56
2023-01-17T06:54:11.941Z,1.59
2023-01-17T06:55:11.904Z,1.60
2023-01-17T06:56:11.915Z,1.66
2023-01-17T06:57:11.880Z,1.67
2023-01-17T06:58:11.924Z,1.66
2023-01-17T06:59:11.862Z,1.63
2023-01-17T07:00:11.860Z,1.62
2023-01-17T07:01:11.957Z,1.59
2023-01-17T07:02:11.842Z,1.56
2023-01-17T07:03:11.799Z,1.53
2023-01-17T07:04:11.881Z,1.50
2023-01-17T07:05:11.775Z,1.52
2023-01-17T07:06:11.793Z,1.53
2023-01-17T07:07:11.747Z,1.53
2023-01-17T07:08:11.761Z,1.53
2023-01-17T07:09:11.734Z,1.50
2023-01-17T07:10:11.758Z,1.50
2023-01-17T07:11:11.702Z,1.53
2023-01-17T07:12:11.818Z,1.56
2023-01-17T07:13:11.717Z,1.58
2023-01-17T07:14:11.674Z,1.59
2023-01-17T07:15:11.651Z,1.60
2023-01-17T07:16:11.662Z,1.63
2023-01-17T07:17:11.620Z,1.67
2023-01-17T07:18:11.631Z,1.67
2023-01-17T07:19:11.912Z,1.68
2023-01-17T07:20:11.599Z,1.71
2023-01-17T07:21:11.591Z,1.74
2023-01-17T07:22:11.578Z,1.76
2023-01-17T07:23:11.560Z,1.77
2023-01-17T07:24:11.587Z,1.77
2023-01-17T07:25:11.524Z,1.78
2023-01-17T07:26:11.536Z,1.81
2023-01-17T07:27:11.495Z,1.84
2023-01-17T07:28:11.526Z,1.84
2023-01-17T07:29:11.496Z,1.84
2023-01-17T07:30:11.474Z,1.81
2023-01-17T07:31:11.476Z,1.81
2023-01-17T07:32:11.457Z,1.80
2023-01-17T07:33:11.421Z,1.80
2023-01-17T07:34:11.470Z,1.81
2023-01-17T07:35:11.420Z,1.78
2023-01-17T07:36:11.399Z,1.81
2023-01-17T07:37:13.062Z,1.81
2023-01-17T07:38:11.420Z,1.87
2023-01-17T07:39:11.373Z,1.85
2023-01-17T07:40:11.362Z,1.85
2023-01-17T07:41:11.346Z,1.85
2023-01-17T07:42:11.542Z,1.84
2023-01-17T07:43:11.286Z,1.85
2023-01-17T07:44:11.305Z,1.85
2023-01-17T07:45:11.317Z,1.88
2023-01-17T07:46:11.298Z,1.89
2023-01-17T07:47:11.274Z,1.91
2023-01-17T07:48:18.320Z,1.92
2023-01-17T07:49:12.024Z,1.97
2023-01-17T07:50:11.795Z,1.95
2023-01-17T07:51:11.230Z,1.97
2023-01-17T07:52:11.569Z,1.95
2023-01-17T07:53:11.240Z,1.92
2023-01-17T07:54:11.179Z,1.89
2023-01-17T07:55:11.252Z,1.88
2023-01-17T07:56:11.227Z,1.91
2023-01-17T07:57:11.172Z,1.91
2023-01-17T07:58:11.121Z,1.94
2023-01-17T07:59:11.156Z,1.94
2023-01-17T08:00:11.098Z,1.97
2023-01-17T08:01:11.231Z,1.99
2023-01-17T08:02:11.227Z,2.00
2023-01-17T08:03:11.082Z,2.00
2023-01-17T08:04:11.083Z,2.02
2023-01-17T08:05:11.106Z,2.02
2023-01-17T08:06:11.009Z,2.02
2023-01-17T08:07:10.981Z,2.04
2023-01-17T08:08:11.001Z,2.06
2023-01-17T08:09:10.969Z,2.07
2023-01-17T08:10:10.939Z,2.10
2023-01-17T08:11:11.031Z,2.11
2023-01-17T08:12:10.957Z,2.13
2023-01-17T08:13:10.980Z,2.17
2023-01-17T08:14:10.889Z,2.18
2023-01-17T08:15:11.028Z,2.24
2023-01-17T08:16:10.922Z,2.26
2023-01-17T08:17:10.901Z,2.28
2023-01-17T08:18:10.932Z,2.28
2023-01-17T08:19:10.853Z,2.28
2023-01-17T08:20:10.905Z,2.29
2023-01-17T08:21:10.992Z,2.31
2023-01-17T08:22:10.803Z,2.33
2023-01-17T08:23:10.844Z,2.35
2023-01-17T08:24:10.773Z,2.38
2023-01-17T08:25:10.852Z,2.38
2023-01-17T08:26:10.775Z,2.42
2023-01-17T08:27:11.788Z,2.42
2023-01-17T08:28:10.869Z,2.46
2023-01-17T08:29:10.736Z,2.46
2023-01-17T08:30:10.718Z,2.49
2023-01-17T08:31:10.843Z,2.50
2023-01-17T08:32:10.666Z,2.53
2023-01-17T08:33:10.754Z,2.56
2023-01-17T08:34:10.638Z,2.60
2023-01-17T08:35:10.644Z,2.62
2023-01-17T08:36:10.660Z,2.64
2023-01-17T08:37:10.682Z,2.65
2023-01-17T08:38:10.690Z,2.71
2023-01-17T08:39:10.645Z,2.72
2023-01-17T08:40:10.569Z,2.77
2023-01-17T08:41:10.574Z,2.77
2023-01-17T08:42:10.565Z,2.80
2023-01-17T08:43:10.561Z,2.83
2023-01-17T08:44:10.612Z,2.85
2023-01-17T08:45:10.499Z,2.89
2023-01-17T08:46:10.569Z,2.92
2023-01-17T08:47:10.490Z,2.93
2023-01-17T08:48:10.478Z,2.97
2023-01-17T08:49:10.484Z,2.98
2023-01-17T08:50:10.501Z,3.00
2023-01-17T08:51:10.453Z,3.01
2023-01-17T08:52:10.556Z,3.03
2023-01-17T08:53:10.420Z,3.05
2023-01-17T08:54:10.437Z,3.07
2023-01-17T08:55:10.451Z,3.08
2023-01-17T08:56:10.442Z,3.11
2023-01-17T08:57:10.366Z,3.16
2023-01-17T08:58:10.339Z,3.18
2023-01-17T08:59:10.340Z,3.22
2023-01-17T09:00:10.324Z,3.26
2023-01-17T09:01:10.478Z,3.29
2023-01-17T09:02:10.330Z,3.31
2023-01-17T09:03:10.284Z,3.29
2023-01-17T09:04:10.336Z,3.32
2023-01-17T09:05:10.289Z,3.32
2023-01-17T09:06:10.262Z,3.36
2023-01-17T09:07:10.235Z,3.37
2023-01-17T09:08:10.206Z,3.37
2023-01-17T09:09:10.241Z,3.40
2023-01-17T09:10:10.203Z,3.36
2023-01-17T09:11:10.217Z,3.36
2023-01-17T09:12:10.166Z,3.40
2023-01-17T09:13:10.183Z,3.41
2023-01-17T09:14:10.142Z,3.41
2023-01-17T09:15:10.167Z,3.42
2023-01-17T09:16:10.154Z,3.41
2023-01-17T09:17:10.145Z,3.44
2023-01-17T09:18:10.103Z,3.44
2023-01-17T09:19:10.089Z,3.48
2023-01-17T09:20:10.085Z,3.47
2023-01-17T09:21:10.081Z,3.48
2023-01-17T09:22:10.029Z,3.47
2023-01-17T09:23:10.047Z,3.47
2023-01-17T09:24:10.007Z,3.47
2023-01-17T09:25:10.012Z,3.45
2023-01-17T09:26:10.038Z,3.48
2023-01-17T09:27:10.015Z,3.48
2023-01-17T09:28:09.955Z,3.50
2023-01-17T09:29:09.978Z,3.50
2023-01-17T09:30:09.925Z,3.51
2023-01-17T09:31:10.044Z,3.50
2023-01-17T09:32:09.954Z,3.51
2023-01-17T09:33:09.903Z,3.53
2023-01-17T09:34:09.895Z,3.51
2023-01-17T09:35:09.908Z,3.53
2023-01-17T09:36:09.867Z,3.56
2023-01-17T09:37:09.882Z,3.55
2023-01-17T09:38:09.991Z,3.56
2023-01-17T09:39:09.849Z,3.58
2023-01-17T09:40:09.850Z,3.58
2023-01-17T09:41:09.808Z,3.59
2023-01-17T09:42:09.793Z,3.62
2023-01-17T09:43:09.837Z,3.63
2023-01-17T09:44:09.770Z,3.65
2023-01-17T09:45:09.796Z,3.68
2023-01-17T09:46:09.760Z,3.68
2023-01-17T09:47:09.772Z,3.70
2023-01-17T09:48:09.723Z,3.70
2023-01-17T09:49:09.714Z,3.70
2023-01-17T09:50:09.693Z,3.70
2023-01-17T09:51:09.719Z,3.69
2023-01-17T09:52:09.656Z,3.73
2023-01-17T09:53:09.681Z,3.73
2023-01-17T09:54:09.634Z,3.76
2023-01-17T09:55:09.658Z,3.78
2023-01-17T09:56:09.640Z,3.77
2023-01-17T09:57:09.647Z,3.77
2023-01-17T09:58:09.596Z,3.77
2023-01-17T09:59:09.609Z,3.78
2023-01-17T10:00:09.610Z,3.80
2023-01-17T10:01:09.623Z,3.81
2023-01-17T10:02:09.686Z,3.83
2023-01-17T10:03:09.759Z,3.83
2023-01-17T10:04:09.575Z,3.83
2023-01-17T10:05:09.572Z,3.86
2023-01-17T10:06:09.506Z,3.87
2023-01-17T10:07:09.512Z,3.91
2023-01-17T10:08:09.526Z,3.92
2023-01-17T10:09:09.497Z,3.92
2023-01-17T10:10:09.516Z,3.91
2023-01-17T10:11:09.451Z,3.88
2023-01-17T10:12:09.498Z,3.86
2023-01-17T10:13:09.411Z,3.87
2023-01-17T10:14:09.377Z,3.91
2023-01-17T10:15:09.417Z,3.87
2023-01-17T10:16:09.349Z,3.87
2023-01-17T10:17:09.408Z,3.91
2023-01-17T10:18:14.542Z,3.91
2023-01-17T10:19:10.375Z,3.91
2023-01-17T10:20:09.295Z,3.91
2023-01-17T10:21:09.304Z,3.91
2023-01-17T10:22:09.285Z,3.91
2023-01-17T10:23:09.354Z,3.94
2023-01-17T10:24:09.272Z,3.95
2023-01-17T10:25:09.307Z,3.96
2023-01-17T10:26:09.221Z,3.96
2023-01-17T10:27:09.226Z,3.99
2023-01-17T10:28:09.193Z,4.02
2023-01-17T10:29:09.238Z,4.05
2023-01-17T10:30:09.180Z,4.08
2023-01-17T10:31:09.267Z,4.10
2023-01-17T10:32:09.138Z,4.12
2023-01-17T10:33:09.148Z,4.12
2023-01-17T10:34:09.108Z,4.14
2023-01-17T10:35:09.158Z,4.16
2023-01-17T10:36:09.079Z,4.13
2023-01-17T10:37:09.097Z,4.16
2023-01-17T10:38:09.111Z,4.16
2023-01-17T10:39:09.055Z,4.19
2023-01-17T10:40:09.025Z,4.17
2023-01-17T10:41:09.063Z,4.20
2023-01-17T10:42:09.011Z,4.20
2023-01-17T10:43:09.018Z,4.20
2023-01-17T10:44:09.015Z,4.24
2023-01-17T10:45:09.355Z,4.30
2023-01-17T10:46:08.975Z,4.31
2023-01-17T10:47:08.970Z,4.37
2023-01-17T10:48:08.921Z,4.40
2023-01-17T10:49:08.949Z,4.42
2023-01-17T10:50:08.928Z,4.48
2023-01-17T10:51:08.920Z,4.49
2023-01-17T10:52:08.897Z,4.49
2023-01-17T10:53:08.888Z,4.49
2023-01-17T10:54:08.838Z,4.49
2023-01-17T10:55:08.858Z,4.44
2023-01-17T10:56:08.847Z,4.44
2023-01-17T10:57:08.855Z,4.42
2023-01-17T10:58:08.804Z,4.42
2023-01-17T10:59:08.815Z,4.49
2023-01-17T11:00:08.765Z,4.50
2023-01-17T11:01:08.913Z,4.53
2023-01-17T11:02:08.813Z,4.58
2023-01-17T11:03:08.849Z,4.55
2023-01-17T11:04:08.731Z,4.56
2023-01-17T11:05:08.741Z,4.56
2023-01-17T11:06:08.722Z,4.58
2023-01-17T11:07:08.722Z,4.59
2023-01-17T11:08:08.707Z,4.62
2023-01-17T11:09:08.693Z,4.60
2023-01-17T11:10:08.648Z,4.58
2023-01-17T11:11:08.700Z,4.60
2023-01-17T11:12:08.655Z,4.60
2023-01-17T11:13:08.660Z,4.66
2023-01-17T11:14:08.577Z,4.66
2023-01-17T11:15:08.662Z,4.66
2023-01-17T11:16:08.589Z,4.68
2023-01-17T11:17:08.624Z,4.68
2023-01-17T11:18:08.554Z,4.66
2023-01-17T11:19:08.555Z,4.63
2023-01-17T11:20:08.524Z,4.66
2023-01-17T11:21:08.543Z,4.66
2023-01-17T11:22:08.500Z,4.63
2023-01-17T11:23:08.553Z,4.62
2023-01-17T11:24:08.459Z,4.59
2023-01-17T11:25:08.462Z,4.62
2023-01-17T11:26:08.475Z,4.63
2023-01-17T11:27:08.443Z,4.63
2023-01-17T11:28:08.411Z,4.67
2023-01-17T11:29:08.486Z,4.66
2023-01-17T11:30:08.382Z,4.68
2023-01-17T11:31:08.470Z,4.70
2023-01-17T11:32:08.406Z,4.71
2023-01-17T11:33:08.356Z,4.73
2023-01-17T11:34:08.326Z,4.73
2023-01-17T11:35:08.383Z,4.75
2023-01-17T11:36:08.347Z,4.74
2023-01-17T11:37:08.335Z,4.74
2023-01-17T11:38:08.302Z,4.73
2023-01-17T11:39:08.312Z,4.71
2023-01-17T11:40:08.261Z,4.70
2023-01-17T11:41:08.266Z,4.71
2023-01-17T11:42:08.297Z,4.71
2023-01-17T11:43:08.242Z,4.70
2023-01-17T11:44:08.221Z,4.71
2023-01-17T11:45:08.207Z,4.73
2023-01-17T11:46:08.245Z,4.73
2023-01-17T11:47:08.199Z,4.74
2023-01-17T11:48:08.184Z,4.75
2023-01-17T11:49:08.158Z,4.75
2023-01-17T11:50:08.137Z,4.75
2023-01-17T11:51:08.127Z,4.77
2023-01-17T11:52:08.101Z,4.77
2023-01-17T11:53:08.105Z,4.75
2023-01-17T11:54:08.122Z,4.75
2023-01-17T11:55:08.083Z,4.74
2023-01-17T11:56:08.063Z,4.71
2023-01-17T11:57:08.052Z,4.73
2023-01-17T11:58:08.021Z,4.70
2023-01-17T11:59:08.063Z,4.70
2023-01-17T12:00:08.011Z,4.70
2023-01-17T12:01:08.068Z,4.70
2023-01-17T12:02:07.990Z,4.74
2023-01-17T12:03:08.032Z,4.71
2023-01-17T12:04:08.016Z,4.71
2023-01-17T12:05:07.978Z,4.70
2023-01-17T12:06:07.917Z,4.67
2023-01-17T12:07:07.968Z,4.67
2023-01-17T12:08:07.897Z,4.67
2023-01-17T12:09:07.946Z,4.68
2023-01-17T12:10:07.891Z,4.67
2023-01-17T12:11:07.886Z,4.67
2023-01-17T12:12:07.893Z,4.67
2023-01-17T12:13:07.873Z,4.63
2023-01-17T12:14:07.824Z,4.60
2023-01-17T12:15:07.843Z,4.63
2023-01-17T12:16:07.798Z,4.63
2023-01-17T12:17:07.820Z,4.66
2023-01-17T12:18:07.781Z,4.66
2023-01-17T12:19:07.833Z,4.67
2023-01-17T12:20:07.789Z,4.71
2023-01-17T12:21:07.748Z,4.73
2023-01-17T12:22:07.730Z,4.73
2023-01-17T12:23:07.748Z,4.73
2023-01-17T12:24:07.699Z,4.73
2023-01-17T12:25:07.738Z,4.74
2023-01-17T12:26:07.699Z,4.74
2023-01-17T12:27:07.658Z,4.74
2023-01-17T12:28:07.667Z,4.74
2023-01-17T12:29:07.639Z,4.74
2023-01-17T12:30:07.656Z,4.74
2023-01-17T12:31:07.649Z,4.74
2023-01-17T12:32:07.686Z,4.71
2023-01-17T12:33:07.572Z,4.73
2023-01-17T12:34:08.154Z,4.70
2023-01-17T12:35:07.568Z,4.71
2023-01-17T12:36:07.572Z,4.71
2023-01-17T12:37:07.546Z,4.73
2023-01-17T12:38:07.575Z,4.71
2023-01-17T12:39:07.501Z,4.71
2023-01-17T12:40:07.525Z,4.70
2023-01-17T12:41:07.490Z,4.70
2023-01-17T12:42:07.518Z,4.70
2023-01-17T12:43:07.438Z,4.68
2023-01-17T12:44:07.492Z,4.70
2023-01-17T12:45:07.419Z,4.71
2023-01-17T12:46:07.415Z,4.68
2023-01-17T12:47:07.397Z,4.70
2023-01-17T12:48:07.444Z,4.71
2023-01-17T12:49:07.404Z,4.70
2023-01-17T12:50:07.391Z,4.70
2023-01-17T12:51:07.352Z,4.70
2023-01-17T12:52:07.372Z,4.71
2023-01-17T12:53:07.316Z,4.73
2023-01-17T12:54:07.520Z,4.70
2023-01-17T12:55:07.329Z,4.70
2023-01-17T12:56:07.315Z,4.68
2023-01-17T12:57:07.260Z,4.67
2023-01-17T12:58:07.269Z,4.66
2023-01-17T12:59:07.250Z,4.63
2023-01-17T13:00:07.252Z,4.63
2023-01-17T13:01:07.345Z,4.60
2023-01-17T13:02:07.267Z,4.60
2023-01-17T13:03:07.199Z,4.62
2023-01-17T13:04:07.238Z,4.62
2023-01-17T13:05:07.159Z,4.66
2023-01-17T13:06:07.215Z,4.66
2023-01-17T13:07:07.138Z,4.68
2023-01-17T13:08:07.193Z,4.67
2023-01-17T13:09:07.137Z,4.67
2023-01-17T13:10:07.132Z,4.70
2023-01-17T13:11:07.114Z,4.70
2023-01-17T13:12:07.132Z,4.70
2023-01-17T13:13:07.155Z,4.70
2023-01-17T13:14:07.083Z,4.68
2023-01-17T13:15:07.041Z,4.68
2023-01-17T13:16:07.087Z,4.70
2023-01-17T13:17:07.051Z,4.68
2023-01-17T13:18:07.043Z,4.68